KGXY/GXY METAR and TAF weather

Enter ICAO airport designator
Station Type Date Time Source
KGXY METAR 2019/06/26 17:56 UTC NOAA

KGXY 261756Z AUTO VRB03KT 10SM CLR 27/08 A3002 RMK AO2 SLP124 T02720083 10278 20100 57012


Station Type Date Time Source
KGXY Decoded METAR 2019/06/26 17:56 UTC NOAA

Greeley, Greeley-Weld County Airport, CO, United States (KGXY) 40-26N 104-38W
Jun 26, 2019 - 01:56 PM EDT / 2019.06.26 1756 UTC
Wind: Variable at 3 MPH (3 KT):0
Visibility: 10 mile(s):0
Sky conditions: clear
Temperature: 81.0 F (27.2 C)
Dew Point: 46.9 F (8.3 C)
Relative Humidity: 30%
Pressure (altimeter): 30.02 in. Hg (1016 hPa)
Pressure tendency: 0.04 inches (1.2 hPa) lower than three hours ago
ob: KGXY 261756Z AUTO VRB03KT 10SM CLR 27/08 A3002 RMK AO2 SLP124 T02720083 10278 20100 57012
cycle: 18

Station Type Date Time Source
KGXY TAF UTC NOAA

Error!

Example: see airport list